ADDS METAR Data INFO
IDs: Format: Raw Decoded Include TAF

Data at: 0804 UTC 24 May 2018

KRBO 240755Z AUTO 11003KT 10SM CLR 24/23 A3000 RMK AO2 T02400234
KRBO 240735Z AUTO 11004KT 10SM CLR 24/24 A3000 RMK AO2 T02410235
KRBO 240715Z AUTO 09005KT 10SM CLR 24/23 A3000 RMK AO2 T02380233
KRBO 240655Z AUTO 11003KT 10SM CLR 24/23 A3000 RMK AO2 T02380233
KRBO 240635Z AUTO 11004KT 10SM CLR 24/23 A3001 RMK AO2 T02380233
KRBO 240615Z AUTO 12003KT 10SM CLR 24/23 A3001 RMK AO2 T02380232
KRBO 240555Z AUTO 10003KT 10SM CLR 24/23 A3001 RMK AO2 T02400233 10286 20240
KRBO 240535Z AUTO 00000KT 10SM CLR 24/23 A3001 RMK AO2 T02420234
KRBO 240515Z AUTO 13004KT 10SM CLR 25/24 A3000 RMK AO2 T02450235
KRBO 240455Z AUTO 12004KT 10SM CLR 25/24 A3001 RMK AO2 T02460235
KRBO 240435Z AUTO 12004KT 10SM CLR 25/24 A3001 RMK AO2 T02450235
KRBO 240415Z AUTO 11004KT 10SM CLR 25/24 A3001 RMK AO2 T02470235
KRBO 240355Z AUTO 13005KT 10SM CLR 25/24 A3000 RMK AO2 T02500235
KRBO 240335Z AUTO 12005KT 10SM CLR 25/24 A3000 RMK AO2 T02510235
KRBO 240315Z AUTO 12005KT 10SM CLR 25/24 A2999 RMK AO2 T02520235
KRBO 240255Z AUTO 13008KT 10SM CLR 26/24 A2998 RMK AO2 T02550236
KRBO 240235Z AUTO 12007KT 10SM CLR 26/24 A2998 RMK AO2 T02560235
KRBO 240215Z AUTO 12008KT 10SM CLR 26/24 A2998 RMK AO2 T02570236
KRBO 240155Z AUTO 13007KT 10SM SCT023 26/23 A2997 RMK AO2 T02610234
KRBO 240135Z AUTO 12007KT 10SM CLR 26/24 A2997 RMK AO2 T02620235
KRBO 240115Z AUTO 12007KT 10SM CLR 27/23 A2995 RMK AO2 T02660231
KRBO 240055Z AUTO 12010KT 10SM CLR 27/23 A2994 RMK AO2 T02720232
KRBO 240035Z AUTO 13009G16KT 10SM CLR 28/23 A2993 RMK AO2 T02780230
KRBO 240015Z AUTO 12011KT 10SM CLR 28/23 A2993 RMK AO2 T02840227
KRBO 232355Z AUTO 13010G14KT 10SM A2993 RMK AO2 6////
KRBO 232340Z AUTO 12010KT A2993 RMK AO2 PWINO
KRBO 232255Z AUTO 11011G17KT 10SM CLR 30/23 A2993 RMK AO2 T02980227
KRBO 232235Z AUTO 11015G19KT 10SM SCT031 30/23 A2993 RMK AO2 T03010228
KRBO 232215Z AUTO 11012G17KT 10SM CLR 30/23 A2994 RMK AO2 T03030227
KRBO 232155Z AUTO 12010G16KT 10SM CLR 31/22 A2994 RMK AO2 LTG DSNT N T03060223
KRBO 232135Z AUTO 12012KT 10SM SCT038 SCT044 31/22 A2994 RMK AO2 LTG DSNT E T03070222
KRBO 232115Z AUTO 11012KT 10SM CLR 31/22 A2995 RMK AO2 T03100220
KRBO 232055Z AUTO 12011KT 10SM CLR 31/23 A2995 RMK AO2 T03120225
KRBO 232035Z AUTO 12012G15KT 10SM SCT037 SCT046 SCT060 31/22 A2995 RMK AO2 T03120222
KRBO 232015Z AUTO 12010G17KT 10SM SCT041 SCT050 31/23 A2996 RMK AO2 LTG DSNT E T03120227
KRBO 231955Z AUTO 12009KT 10SM CLR 31/22 A2996 RMK AO2 T03120223
KRBO 231935Z AUTO 11010G15KT 10SM SCT049 SCT055 32/23 A2996 RMK AO2 T03170226
KRBO 231915Z AUTO 13006KT 10SM SCT040 SCT047 BKN055 31/23 A2996 RMK AO2 T03140227
KRBO 231855Z AUTO 11005KT 10SM SCT046 BKN060 30/22 A2997 RMK AO2 LTG DSNT NE T03040222
KRBO 231835Z AUTO 09008KT 10SM SCT070 31/23 A2997 RMK AO2 T03060230
KRBO 231815Z AUTO 11009KT 10SM SCT035 SCT050 SCT060 30/23 A2997 RMK AO2 T03040226
KRBO 231755Z AUTO 11008KT 10SM SCT037 SCT050 BKN080 30/23 A2998 RMK AO2 T03030231 10307 20232
KRBO 231735Z AUTO 12007KT 10SM SCT039 SCT048 SCT065 31/23 A2998 RMK AO2 LTG DSNT E T03070225
KRBO 231715Z AUTO 13004KT 10SM SCT065 30/22 A2999 RMK AO2 T02990217
KRBO 231655Z AUTO 17005KT 10SM SCT034 SCT048 30/22 A2999 RMK AO2 T02990219
KRBO 231635Z AUTO 09006KT 10SM SCT029 SCT036 SCT046 30/23 A3000 RMK AO2 LTG DSNT NE T02980234
KRBO 231615Z AUTO 20005KT 10SM SCT029 SCT033 SCT039 29/23 A3000 RMK AO2 LTG DSNT E T02910228
KRBO 231555Z AUTO 14003KT 10SM SCT027 SCT033 SCT038 29/22 A3001 RMK AO2 T02860224
KRBO 231535Z AUTO 14005KT 10SM SCT025 SCT038 SCT050 28/22 A3001 RMK AO2 T02820222
KRBO 231515Z AUTO 16006KT 10SM SCT020 BKN026 BKN036 28/23 A3001 RMK AO2 T02790230
KRBO 231455Z AUTO 16006KT 10SM SCT020 SCT040 28/23 A3000 RMK AO2 T02760232
KRBO 231435Z AUTO 15005KT 10SM SCT012 SCT020 27/23 A3000 RMK AO2 T02710233
KRBO 231415Z AUTO 15006KT 10SM SCT012 SCT018 27/24 A3000 RMK AO2 T02670236
KRBO 231355Z AUTO 13005KT 10SM SCT009 26/24 A3000 RMK AO2 T02620241
KRBO 231335Z AUTO 11004KT 10SM CLR 26/24 A2999 RMK AO2 T02590242
KRBO 231315Z AUTO 10004KT 10SM CLR 25/24 A2999 RMK AO2 T02530239
KRBO 231255Z AUTO 00000KT 10SM CLR 25/24 A2998 RMK AO2 LTG DSNT E T02460236
KRBO 231235Z AUTO 00000KT 10SM CLR 24/24 A2997 RMK AO2 T02410235
KRBO 231215Z AUTO 00000KT 7SM SCT046 23/23 A2997 RMK AO2 T02330228
KRBO 231155Z AUTO 00000KT 7SM CLR 23/23 A2996 RMK AO2 T02320227 10235 20228
KRBO 231135Z AUTO 13003KT 10SM CLR 23/23 A2996 RMK AO2 T02320226
KRBO 231115Z AUTO 00000KT 10SM CLR 23/23 A2995 RMK AO2 T02340227
KRBO 231055Z AUTO 13004KT 10SM CLR 23/23 A2994 RMK AO2 T02330227
KRBO 231035Z AUTO 12005KT 10SM CLR 24/23 A2994 RMK AO2 T02350228
KRBO 231015Z AUTO 13004KT 10SM CLR 24/23 A2993 RMK AO2 T02350228
KRBO 230955Z AUTO 14005KT 10SM CLR 23/23 A2993 RMK AO2 T02330227
KRBO 230935Z AUTO 13005KT 10SM CLR 23/23 A2993 RMK AO2 T02330227
KRBO 230915Z AUTO 14004KT 10SM CLR 24/23 A2994 RMK AO2 T02350228
KRBO 230855Z AUTO 13005KT 10SM CLR 23/23 A2994 RMK AO2 T02330228
KRBO 230835Z AUTO 12005KT 10SM CLR 23/23 A2994 RMK AO2 T02300225
KRBO 230815Z AUTO 11004KT 10SM CLR 23/23 A2995 RMK AO2 T02300225
KRBO 230755Z AUTO 12003KT 10SM CLR 23/23 A2995 RMK AO2 T02320226
KRBO 230735Z AUTO 11004KT 10SM CLR 23/23 A2995 RMK AO2 T02320227
KRBO 230715Z AUTO 10003KT 10SM CLR 23/22 A2996 RMK AO2 T02290223
KRBO 230655Z AUTO 00000KT 10SM CLR 23/23 A2997 RMK AO2 T02300225
KRBO 230635Z AUTO 00000KT 10SM CLR 23/23 A2996 RMK AO2 T02300225
KRBO 230615Z AUTO 00000KT 10SM CLR 23/23 A2996 RMK AO2 T02320226
KRBO 230555Z AUTO 12003KT 10SM CLR 23/23 A2996 RMK AO2 T02340227 10275 20234 403060216
KRBO 230535Z AUTO 12003KT 10SM CLR 24/23 A2997 RMK AO2 T02350227
KRBO 230515Z AUTO 12004KT 10SM CLR 24/23 A2996 RMK AO2 T02370230
KRBO 230455Z AUTO 12004KT 10SM CLR 24/23 A2996 RMK AO2 T02380230
KRBO 230435Z AUTO 13005KT 10SM CLR 24/23 A2996 RMK AO2 T02400228
KRBO 230415Z AUTO 12006KT 10SM CLR 24/23 A2995 RMK AO2 T02400228
KRBO 230350Z AUTO 13007KT 10SM CLR 24/23 A2994 RMK AO2 T02400227
KRBO 230335Z AUTO 12007KT 10SM CLR 24/23 A2994 RMK AO2 T02400227
KRBO 230315Z AUTO 12006KT 10SM CLR 24/23 A2994 RMK AO2 T02400226
KRBO 230255Z AUTO 12006KT 10SM CLR 24/23 A2993 RMK AO2 T02410226
KRBO 230230Z AUTO 12006KT 10SM CLR 25/23 A2993 RMK AO2 T02450226
KRBO 230215Z AUTO 12006KT 10SM CLR 25/23 A2992 RMK AO2 T02470226
KRBO 230155Z AUTO 12007KT 10SM CLR 25/23 A2992 RMK AO2 T02500225
KRBO 230135Z AUTO 12009KT 10SM CLR 26/22 A2992 RMK AO2 T02550223
KRBO 230115Z AUTO 12007KT 10SM CLR 26/22 A2991 RMK AO2 T02580223
KRBO 230055Z AUTO 12009KT 10SM CLR 27/22 A2991 RMK AO2 T02650220
KRBO 230035Z AUTO 13010KT 10SM CLR 27/22 A2990 RMK AO2 T02670219
KRBO 230015Z AUTO 13010KT 10SM CLR 27/22 A2990 RMK AO2 T02720221
KRBO 222355Z AUTO 13014KT 10SM CLR 28/22 A2990 RMK AO2 T02760218 10306 20276
KRBO 222335Z AUTO 13013G18KT 10SM CLR 28/22 A2990 RMK AO2 T02820217
KRBO 222315Z AUTO 14012KT 10SM CLR 29/22 A2990 RMK AO2 T02850216
KRBO 222255Z AUTO 13010G16KT 10SM CLR 29/22 A2989 RMK AO2 T02880219
KRBO 222235Z AUTO 14012KT 10SM CLR 29/22 A2990 RMK AO2 T02910218
KRBO 222215Z AUTO 13012KT 10SM CLR 29/22 A2989 RMK AO2 T02930218
KRBO 222155Z AUTO 12012G16KT 10SM SCT034 29/22 A2989 RMK AO2 T02910219
KRBO 222135Z AUTO 13014G17KT 10SM SCT034 30/22 A2989 RMK AO2 T02950222
KRBO 222115Z AUTO 13016G19KT 10SM SCT036 30/22 A2990 RMK AO2 T02960223
KRBO 222055Z AUTO 12014G18KT 10SM SCT039 30/22 A2990 RMK AO2 T03010223
KRBO 222035Z AUTO 11013G16KT 10SM CLR 30/22 A2991 RMK AO2 T03030217
KRBO 222015Z AUTO 13009KT 10SM CLR 30/22 A2992 RMK AO2 T03010219